Time;durP1;ratioP1;P1;durP2;ratioP2;P2;SDS_P1;SDS_P2;PMS_P1;PMS_P2;Temp;Humidity;BMP_temperature;BMP_pressure;BME280_temperature;BME280_humidity;BME280_pressure;Samples;Min_cycle;Max_cycle;Signal;HPM_P1;HPM_P2
2022/12/29 00:02:03;;;;;;;;;;;11.40;99.90;;;;;;5047941;28;19912;-65
2022/12/29 00:04:29;;;;;;;;;;;11.40;99.90;;;;;;5051133;28;19915;-66
2022/12/29 00:06:54;;;;;;;;;;;11.40;99.90;;;;;;5050778;28;19994;-66
2022/12/29 00:09:20;;;;;;;;;;;11.30;99.90;;;;;;5050542;28;20015;-65
2022/12/29 00:11:45;;;;;;;;;;;11.20;99.90;;;;;;5046106;28;20332;-66
2022/12/29 00:16:56;;;;;;;;;;;11.20;99.90;;;;;;5051505;28;19916;-67
2022/12/29 00:35:49;;;;;;;;;;;11.20;99.90;;;;;;5049445;28;19919;-66
2022/12/29 00:46:27;;;;;;;;;;;11.10;99.90;;;;;;5047273;28;20003;-67
2022/12/29 00:51:37;;;;;;;;;;;11.20;99.90;;;;;;5030374;28;19920;-66
2022/12/29 00:54:03;;;;;;;;;;;11.20;99.90;;;;;;5030766;28;19909;-64
2022/12/29 00:56:28;;;;;;;;;;;11.30;99.90;;;;;;5030578;28;19912;-68
2022/12/29 00:58:54;;;;;;;;;;;11.30;99.90;;;;;;5030213;28;19916;-68
2022/12/29 01:01:19;;;;;;;;;;;11.20;99.90;;;;;;5030298;28;20321;-67
2022/12/29 01:03:45;;;;;;;;;;;11.10;99.90;;;;;;5034831;28;19943;-65
2022/12/29 01:06:12;;;;;;;;;;;11.20;99.90;;;;;;5049694;28;19916;-67
2022/12/29 01:08:37;;;;;;;;;;;11.10;99.90;;;;;;5047389;28;19928;-65
2022/12/29 01:11:04;;;;;;;;;;;11.10;99.90;;;;;;5043074;28;19909;-66
2022/12/29 01:13:30;;;;;;;;;;;11.20;99.90;;;;;;5037967;28;19928;-67
2022/12/29 01:15:56;;;;;;;;;;;11.20;99.90;;;;;;5035317;28;19920;-67
2022/12/29 01:18:22;;;;;;;;;;;11.10;99.90;;;;;;5048398;28;19909;-67
2022/12/29 01:20:47;;;;;;;;;;;11.10;99.90;;;;;;5053776;28;19951;-69
2022/12/29 01:23:13;;;;;;;;;;;11.10;99.90;;;;;;5033976;28;19984;-66
2022/12/29 01:25:38;;;;;;;;;;;11.10;99.90;;;;;;5033247;28;19920;-64
2022/12/29 01:28:04;;;;;;;;;;;11.00;99.90;;;;;;5032705;28;20024;-67
2022/12/29 01:30:30;;;;;;;;;;;11.10;99.90;;;;;;5039923;28;19925;-67
2022/12/29 01:32:56;;;;;;;;;;;11.00;99.90;;;;;;5031905;28;21193;-66
2022/12/29 01:35:21;;;;;;;;;;;11.00;99.90;;;;;;5036812;28;20375;-66
2022/12/29 01:37:47;;;;;;;;;;;11.20;99.90;;;;;;5036581;28;20007;-67
2022/12/29 01:40:12;;;;;;;;;;;11.10;99.90;;;;;;5038265;28;19966;-66
2022/12/29 01:42:38;;;;;;;;;;;11.10;99.90;;;;;;5039420;28;19998;-67
2022/12/29 01:45:11;;;;;;;;;;;11.10;99.90;;;;;;5050647;28;19909;-64
2022/12/29 01:47:41;;;;;;;;;;;11.10;99.90;;;;;;5051927;28;20305;-66
2022/12/29 01:50:30;;;;;;;;;;;11.00;99.90;;;;;;5051344;28;19909;-67
2022/12/29 01:53:01;;;;;;;;;;;11.10;99.90;;;;;;5055517;28;20416;-66
2022/12/29 01:55:28;;;;;;;;;;;11.10;99.90;;;;;;5043814;28;19909;-67
2022/12/29 01:57:55;;;;;;;;;;;11.10;99.90;;;;;;5051690;28;19996;-65
2022/12/29 02:00:21;;;;;;;;;;;11.10;99.90;;;;;;5051562;28;19920;-67
2022/12/29 02:02:53;;;;;;;;;;;11.10;99.90;;;;;;5053405;28;19908;-66
2022/12/29 02:05:32;;;;;;;;;;;11.10;99.90;;;;;;5052836;28;20363;-65
2022/12/29 02:07:58;;;;;;;;;;;11.20;99.90;;;;;;5053270;28;19920;-67
2022/12/29 02:10:25;;;;;;;;;;;11.20;99.90;;;;;;5051864;28;20075;-67
2022/12/29 02:12:51;;;;;;;;;;;11.20;99.90;;;;;;5037886;28;20539;-66
2022/12/29 02:15:17;;;;;;;;;;;11.20;99.90;;;;;;5038074;28;19939;-63
2022/12/29 02:17:46;;;;;;;;;;;11.20;99.90;;;;;;5042316;28;19913;-64
2022/12/29 02:20:23;;;;;;;;;;;11.10;99.90;;;;;;5052807;28;20314;-66
2022/12/29 02:22:55;;;;;;;;;;;11.10;99.90;;;;;;5048051;28;20000;-65
2022/12/29 02:25:26;;;;;;;;;;;11.10;99.90;;;;;;5033007;28;20314;-64
2022/12/29 02:28:01;;;;;;;;;;;11.10;99.90;;;;;;5032839;28;19913;-66
2022/12/29 02:30:29;;;;;;;;;;;11.10;99.90;;;;;;5047377;28;19916;-65
2022/12/29 02:33:15;;;;;;;;;;;11.10;99.90;;;;;;5050357;28;20043;-66
2022/12/29 02:35:53;;;;;;;;;;;11.20;99.90;;;;;;5049509;28;19913;-66
2022/12/29 02:38:33;;;;;;;;;;;11.10;99.90;;;;;;5045635;28;19920;-67
2022/12/29 02:41:05;;;;;;;;;;;11.00;99.90;;;;;;5049156;28;19921;-66
2022/12/29 02:43:30;;;;;;;;;;;10.90;99.90;;;;;;5052457;28;19909;-66
2022/12/29 02:46:08;;;;;;;;;;;10.90;99.90;;;;;;5051247;28;20362;-66
2022/12/29 02:48:40;;;;;;;;;;;11.00;99.90;;;;;;5051458;28;19917;-64
2022/12/29 02:51:09;;;;;;;;;;;10.90;99.90;;;;;;5051433;28;19991;-66
2022/12/29 02:56:20;;;;;;;;;;;10.80;99.90;;;;;;5052032;28;19919;-66
2022/12/29 02:58:46;;;;;;;;;;;10.80;99.90;;;;;;5033839;28;19917;-65
2022/12/29 03:01:23;;;;;;;;;;;10.80;99.90;;;;;;5048037;28;20004;-65
2022/12/29 03:03:48;;;;;;;;;;;10.90;99.90;;;;;;5046298;28;20470;-67
2022/12/29 03:06:17;;;;;;;;;;;10.90;99.90;;;;;;5051985;28;20008;-66
2022/12/29 03:08:58;;;;;;;;;;;10.80;99.90;;;;;;5045190;28;19913;-67
2022/12/29 03:12:12;;;;;;;;;;;10.90;99.90;;;;;;5031857;28;20506;-66
2022/12/29 03:17:12;;;;;;;;;;;10.90;99.90;;;;;;5045197;28;20414;-66
2022/12/29 03:19:45;;;;;;;;;;;10.90;99.90;;;;;;5047312;28;19917;-66
2022/12/29 03:22:27;;;;;;;;;;;10.80;99.90;;;;;;5051339;28;19909;-66
2022/12/29 03:25:02;;;;;;;;;;;10.90;99.90;;;;;;5045176;28;19920;-66
2022/12/29 03:27:33;;;;;;;;;;;10.80;99.90;;;;;;5046568;28;19958;-65
2022/12/29 03:30:02;;;;;;;;;;;10.90;99.90;;;;;;5044045;28;19969;-65
2022/12/29 03:32:31;;;;;;;;;;;10.90;99.90;;;;;;5042326;28;19938;-66
2022/12/29 03:34:58;;;;;;;;;;;10.90;99.90;;;;;;5045595;28;20349;-65
2022/12/29 03:37:32;;;;;;;;;;;10.90;99.90;;;;;;5042437;28;19909;-65
2022/12/29 03:39:58;;;;;;;;;;;10.80;99.90;;;;;;5040619;28;19916;-66
2022/12/29 03:42:26;;;;;;;;;;;10.90;99.90;;;;;;5041969;28;20019;-66
2022/12/29 03:44:54;;;;;;;;;;;10.90;99.90;;;;;;5050851;28;19920;-67
2022/12/29 03:47:20;;;;;;;;;;;10.90;99.90;;;;;;5049480;28;19913;-67
2022/12/29 03:49:46;;;;;;;;;;;10.90;99.90;;;;;;5051091;28;20004;-65
2022/12/29 03:52:12;;;;;;;;;;;10.90;99.90;;;;;;5051294;28;19975;-66
2022/12/29 03:54:37;;;;;;;;;;;10.80;99.90;;;;;;5049902;28;20267;-66
2022/12/29 03:57:03;;;;;;;;;;;10.80;99.90;;;;;;5051104;28;20003;-66
2022/12/29 03:59:28;;;;;;;;;;;10.90;99.90;;;;;;5045293;28;19936;-66
2022/12/29 04:01:54;;;;;;;;;;;10.90;99.90;;;;;;5051049;28;19948;-64
2022/12/29 04:04:20;;;;;;;;;;;10.90;99.90;;;;;;5050321;28;20312;-63
2022/12/29 04:06:46;;;;;;;;;;;10.90;99.90;;;;;;5050885;28;19971;-66
2022/12/29 04:09:11;;;;;;;;;;;10.90;99.90;;;;;;5050962;28;20367;-65
2022/12/29 04:11:37;;;;;;;;;;;10.90;99.90;;;;;;5038639;28;19915;-66
2022/12/29 04:14:02;;;;;;;;;;;10.90;99.90;;;;;;5031011;28;19916;-64
2022/12/29 04:16:28;;;;;;;;;;;11.00;99.90;;;;;;5034244;28;20029;-65
2022/12/29 04:18:53;;;;;;;;;;;10.90;99.90;;;;;;5050374;28;20401;-65
2022/12/29 04:21:19;;;;;;;;;;;10.90;99.90;;;;;;5050786;28;19909;-65
2022/12/29 04:23:44;;;;;;;;;;;11.00;99.90;;;;;;5042334;28;19909;-66
2022/12/29 04:26:10;;;;;;;;;;;11.00;99.90;;;;;;5047633;28;19913;-63
2022/12/29 04:28:36;;;;;;;;;;;11.00;99.90;;;;;;5046966;28;20342;-65
2022/12/29 04:31:02;;;;;;;;;;;11.00;99.90;;;;;;5041257;28;19913;-64
2022/12/29 04:33:27;;;;;;;;;;;11.00;99.90;;;;;;5045182;28;19936;-65
2022/12/29 04:35:53;;;;;;;;;;;11.00;99.90;;;;;;5049365;28;20374;-67
2022/12/29 04:38:19;;;;;;;;;;;11.00;99.90;;;;;;5044486;28;19967;-65
2022/12/29 04:40:45;;;;;;;;;;;11.00;99.90;;;;;;5050670;28;20382;-64
2022/12/29 04:43:11;;;;;;;;;;;11.00;99.90;;;;;;5047478;28;20379;-65
2022/12/29 04:45:37;;;;;;;;;;;11.00;99.90;;;;;;5045845;28;20020;-64
2022/12/29 04:48:02;;;;;;;;;;;11.00;99.90;;;;;;5035902;28;19917;-66
2022/12/29 04:50:28;;;;;;;;;;;10.90;99.90;;;;;;5036925;28;19936;-65
2022/12/29 04:52:54;;;;;;;;;;;10.90;99.90;;;;;;5050380;28;20358;-66
2022/12/29 04:55:19;;;;;;;;;;;10.90;99.90;;;;;;5050131;28;19982;-65
2022/12/29 04:57:45;;;;;;;;;;;10.90;99.90;;;;;;5031835;28;19913;-65
2022/12/29 05:00:11;;;;;;;;;;;10.90;99.90;;;;;;5028839;28;19916;-66
2022/12/29 05:02:37;;;;;;;;;;;10.90;99.90;;;;;;5034201;28;19959;-66
2022/12/29 05:05:03;;;;;;;;;;;11.00;99.90;;;;;;5050411;28;19912;-67
2022/12/29 05:07:33;;;;;;;;;;;10.90;99.90;;;;;;5045498;28;19936;-66
2022/12/29 05:09:59;;;;;;;;;;;11.00;99.90;;;;;;5048212;28;19908;-65
2022/12/29 05:12:24;;;;;;;;;;;11.00;99.90;;;;;;5051582;28;19909;-65
2022/12/29 05:14:50;;;;;;;;;;;11.00;99.90;;;;;;5050531;28;19927;-64
2022/12/29 05:17:16;;;;;;;;;;;11.00;99.90;;;;;;5050194;28;19943;-65
2022/12/29 05:19:42;;;;;;;;;;;11.10;99.90;;;;;;5036607;28;20383;-67
2022/12/29 05:22:07;;;;;;;;;;;11.00;99.90;;;;;;5030723;28;19971;-66
2022/12/29 05:24:36;;;;;;;;;;;11.00;99.90;;;;;;5030562;28;20352;-67
2022/12/29 05:27:02;;;;;;;;;;;11.10;99.90;;;;;;5030617;28;20395;-67
2022/12/29 05:29:27;;;;;;;;;;;11.20;99.90;;;;;;5030021;28;19963;-64
2022/12/29 05:31:53;;;;;;;;;;;11.20;99.90;;;;;;5039911;28;19913;-69
2022/12/29 05:34:19;;;;;;;;;;;11.20;99.90;;;;;;5047055;28;20359;-65
2022/12/29 05:36:44;;;;;;;;;;;11.30;99.90;;;;;;5035891;28;19993;-65
2022/12/29 05:39:10;;;;;;;;;;;11.20;99.90;;;;;;5029386;28;19944;-65
2022/12/29 05:41:35;;;;;;;;;;;11.10;99.90;;;;;;5030035;28;19909;-65
2022/12/29 05:44:01;;;;;;;;;;;11.10;99.90;;;;;;5029500;28;19909;-64
2022/12/29 05:46:26;;;;;;;;;;;11.10;99.90;;;;;;5048254;28;19909;-64
2022/12/29 05:48:52;;;;;;;;;;;11.10;99.90;;;;;;5049430;28;20066;-66
2022/12/29 05:51:18;;;;;;;;;;;11.10;99.90;;;;;;5049583;28;19917;-66
2022/12/29 05:53:43;;;;;;;;;;;11.10;99.90;;;;;;5036273;28;19909;-65
2022/12/29 05:56:09;;;;;;;;;;;11.10;99.90;;;;;;5029484;28;20027;-66
2022/12/29 05:58:34;;;;;;;;;;;11.10;99.90;;;;;;5030418;28;19913;-66
2022/12/29 06:01:00;;;;;;;;;;;11.10;99.90;;;;;;5036938;28;20016;-66
2022/12/29 06:03:26;;;;;;;;;;;11.00;99.90;;;;;;5050023;28;19944;-63
2022/12/29 06:05:51;;;;;;;;;;;11.10;99.90;;;;;;5049020;28;20011;-67
2022/12/29 06:08:17;;;;;;;;;;;11.10;99.90;;;;;;5050590;28;19938;-66
2022/12/29 06:10:42;;;;;;;;;;;11.20;99.90;;;;;;5035979;28;19909;-65
2022/12/29 06:13:08;;;;;;;;;;;11.20;99.90;;;;;;5030164;28;20263;-65
2022/12/29 06:15:34;;;;;;;;;;;11.30;99.90;;;;;;5034161;28;19909;-64
2022/12/29 06:18:00;;;;;;;;;;;11.30;99.90;;;;;;5050262;28;19917;-66
2022/12/29 06:20:25;;;;;;;;;;;11.20;99.90;;;;;;5051140;28;20171;-67
2022/12/29 06:22:51;;;;;;;;;;;11.30;99.90;;;;;;5054966;28;19909;-67
2022/12/29 06:25:17;;;;;;;;;;;11.20;99.90;;;;;;5052072;28;19963;-67
2022/12/29 06:27:42;;;;;;;;;;;11.10;99.90;;;;;;5052516;28;19936;-65
2022/12/29 06:30:09;;;;;;;;;;;11.10;99.90;;;;;;5053025;28;19920;-66
2022/12/29 06:32:34;;;;;;;;;;;11.10;99.90;;;;;;5041027;28;20026;-65
2022/12/29 06:35:00;;;;;;;;;;;11.10;99.90;;;;;;5052092;28;19913;-65
2022/12/29 06:37:26;;;;;;;;;;;11.10;99.90;;;;;;5042562;28;19920;-67
2022/12/29 06:39:51;;;;;;;;;;;11.00;99.90;;;;;;5049274;28;19913;-64
2022/12/29 06:42:17;;;;;;;;;;;11.00;99.90;;;;;;5040775;28;19921;-67
2022/12/29 06:44:42;;;;;;;;;;;11.00;99.90;;;;;;5047796;28;20066;-61
2022/12/29 06:47:08;;;;;;;;;;;11.10;99.90;;;;;;5039601;28;19944;-64
2022/12/29 06:49:33;;;;;;;;;;;11.10;99.90;;;;;;5034888;28;20370;-66
2022/12/29 06:52:00;;;;;;;;;;;11.00;99.90;;;;;;5036253;28;19921;-66
2022/12/29 06:54:26;;;;;;;;;;;11.00;99.90;;;;;;5043853;28;20569;-67
2022/12/29 06:56:52;;;;;;;;;;;11.00;99.90;;;;;;5044864;28;20316;-66
2022/12/29 06:59:17;;;;;;;;;;;11.00;99.90;;;;;;5051472;28;19916;-67
2022/12/29 07:01:43;;;;;;;;;;;11.10;99.90;;;;;;5044242;28;20348;-66
2022/12/29 07:04:08;;;;;;;;;;;11.00;99.90;;;;;;5052411;28;19916;-67
2022/12/29 07:06:34;;;;;;;;;;;11.00;99.90;;;;;;5040771;28;19959;-66
2022/12/29 07:08:59;;;;;;;;;;;11.00;99.90;;;;;;5050306;28;20031;-65
2022/12/29 07:11:25;;;;;;;;;;;10.90;99.90;;;;;;5050270;28;20105;-65
2022/12/29 07:13:51;;;;;;;;;;;11.00;99.90;;;;;;5051729;28;19908;-65
2022/12/29 07:16:17;;;;;;;;;;;11.10;99.90;;;;;;5049377;28;19916;-66
2022/12/29 07:18:42;;;;;;;;;;;11.00;99.90;;;;;;5050239;28;20408;-67
2022/12/29 07:21:08;;;;;;;;;;;11.00;99.90;;;;;;5049253;28;19955;-64
2022/12/29 07:23:34;;;;;;;;;;;11.00;99.90;;;;;;5049084;28;19999;-67
2022/12/29 07:26:00;;;;;;;;;;;11.00;99.90;;;;;;5050246;28;19917;-66
2022/12/29 07:28:26;;;;;;;;;;;11.00;99.90;;;;;;5051781;28;19917;-66
2022/12/29 07:30:51;;;;;;;;;;;10.90;99.90;;;;;;5044716;28;20011;-66
2022/12/29 07:33:17;;;;;;;;;;;10.90;99.90;;;;;;5047153;28;20286;-66
2022/12/29 07:35:42;;;;;;;;;;;11.00;99.90;;;;;;5040531;28;20359;-66
2022/12/29 07:38:08;;;;;;;;;;;11.00;99.90;;;;;;5043299;28;19909;-65
2022/12/29 07:40:34;;;;;;;;;;;11.10;99.90;;;;;;5048840;28;20412;-67
2022/12/29 07:42:59;;;;;;;;;;;11.10;99.90;;;;;;5050701;28;19970;-68
2022/12/29 07:45:25;;;;;;;;;;;11.20;99.90;;;;;;5051666;28;20388;-65
2022/12/29 07:47:50;;;;;;;;;;;11.10;99.90;;;;;;5051170;28;19921;-66
2022/12/29 07:50:16;;;;;;;;;;;11.20;99.90;;;;;;5051308;28;19917;-67
2022/12/29 07:52:41;;;;;;;;;;;11.20;99.90;;;;;;5044722;28;20505;-66
2022/12/29 07:55:07;;;;;;;;;;;11.10;99.90;;;;;;5050938;28;20390;-63
2022/12/29 07:57:33;;;;;;;;;;;11.10;99.90;;;;;;5045738;28;20000;-65
2022/12/29 07:59:58;;;;;;;;;;;11.10;99.90;;;;;;5035352;28;19996;-66
2022/12/29 08:02:25;;;;;;;;;;;11.00;99.90;;;;;;5049126;28;20398;-65
2022/12/29 08:04:51;;;;;;;;;;;11.00;99.90;;;;;;5047248;28;20015;-65
2022/12/29 08:07:17;;;;;;;;;;;11.00;99.90;;;;;;5046870;28;19925;-66
2022/12/29 08:09:42;;;;;;;;;;;11.10;99.90;;;;;;5035935;28;20007;-65
2022/12/29 08:12:09;;;;;;;;;;;11.10;99.90;;;;;;5038985;28;20016;-63
2022/12/29 08:14:35;;;;;;;;;;;11.10;99.90;;;;;;5040077;28;20232;-65
2022/12/29 08:17:01;;;;;;;;;;;11.10;99.90;;;;;;5043657;28;19920;-61
2022/12/29 08:19:26;;;;;;;;;;;11.10;99.90;;;;;;5039728;28;20404;-64
2022/12/29 08:21:52;;;;;;;;;;;11.10;99.90;;;;;;5046730;28;19928;-64
2022/12/29 08:24:18;;;;;;;;;;;11.10;99.90;;;;;;5050017;28;20311;-63
2022/12/29 08:26:43;;;;;;;;;;;11.10;99.90;;;;;;5046670;28;19921;-67
2022/12/29 08:29:09;;;;;;;;;;;11.10;99.90;;;;;;5046388;28;19913;-64
2022/12/29 08:31:34;;;;;;;;;;;11.10;99.90;;;;;;5046764;28;20016;-67
2022/12/29 08:34:01;;;;;;;;;;;11.20;99.90;;;;;;5050805;28;20358;-63
2022/12/29 08:36:26;;;;;;;;;;;11.20;99.90;;;;;;5049090;28;19948;-66
2022/12/29 08:38:52;;;;;;;;;;;11.20;99.90;;;;;;5047347;28;19959;-64
2022/12/29 08:41:18;;;;;;;;;;;11.20;99.90;;;;;;5042990;28;19909;-63
2022/12/29 08:43:47;;;;;;;;;;;11.20;99.90;;;;;;5049063;28;19999;-65
2022/12/29 08:46:12;;;;;;;;;;;11.20;99.90;;;;;;5040749;28;19910;-63
2022/12/29 08:48:38;;;;;;;;;;;11.10;99.90;;;;;;5041781;28;19951;-64
2022/12/29 08:51:03;;;;;;;;;;;11.10;99.90;;;;;;5040666;28;20258;-65
2022/12/29 08:53:29;;;;;;;;;;;11.20;99.90;;;;;;5043511;28;20062;-64
2022/12/29 08:55:56;;;;;;;;;;;11.20;99.90;;;;;;5045753;28;20548;-64
2022/12/29 08:58:22;;;;;;;;;;;11.30;99.90;;;;;;5050279;28;19908;-63
2022/12/29 09:00:47;;;;;;;;;;;11.20;99.90;;;;;;5045759;28;20012;-65
2022/12/29 09:03:13;;;;;;;;;;;11.20;99.90;;;;;;5045449;28;19913;-63
2022/12/29 09:05:39;;;;;;;;;;;11.20;99.90;;;;;;5041541;28;19921;-66
2022/12/29 09:08:04;;;;;;;;;;;11.10;99.90;;;;;;5043117;28;19917;-66
2022/12/29 09:10:30;;;;;;;;;;;11.20;99.90;;;;;;5047606;28;20508;-65
2022/12/29 09:12:55;;;;;;;;;;;11.10;99.90;;;;;;5040333;28;19917;-65
2022/12/29 09:15:21;;;;;;;;;;;11.20;99.90;;;;;;5046134;28;20338;-63
2022/12/29 09:17:47;;;;;;;;;;;11.20;99.90;;;;;;5045084;28;20072;-66
2022/12/29 09:20:17;;;;;;;;;;;11.10;99.90;;;;;;5048828;28;20571;-65
2022/12/29 09:22:43;;;;;;;;;;;11.10;99.90;;;;;;5046338;28;20370;-64
2022/12/29 09:25:09;;;;;;;;;;;11.20;99.90;;;;;;5047791;28;19912;-64
2022/12/29 09:27:35;;;;;;;;;;;11.20;99.90;;;;;;5045479;28;20346;-66
2022/12/29 09:30:01;;;;;;;;;;;11.20;99.90;;;;;;5043519;28;19914;-66
2022/12/29 09:32:27;;;;;;;;;;;11.20;99.90;;;;;;5041258;28;20063;-66
2022/12/29 09:34:52;;;;;;;;;;;11.20;99.90;;;;;;5041745;28;19920;-64
2022/12/29 09:37:18;;;;;;;;;;;11.10;99.90;;;;;;5048641;28;19932;-63
2022/12/29 09:39:43;;;;;;;;;;;11.10;99.90;;;;;;5047610;28;19912;-65
2022/12/29 09:42:16;;;;;;;;;;;11.20;99.90;;;;;;5049681;28;19909;-65
2022/12/29 09:44:51;;;;;;;;;;;11.20;99.90;;;;;;5044374;28;20007;-65
2022/12/29 09:47:18;;;;;;;;;;;11.20;99.90;;;;;;5049770;28;19940;-64
2022/12/29 09:49:47;;;;;;;;;;;11.20;99.90;;;;;;5049930;28;19921;-63
2022/12/29 09:52:14;;;;;;;;;;;11.20;99.90;;;;;;5032549;28;19915;-64
2022/12/29 09:54:40;;;;;;;;;;;11.20;99.90;;;;;;5029690;28;19952;-66
2022/12/29 09:57:17;;;;;;;;;;;11.10;99.90;;;;;;5032345;28;19909;-65
2022/12/29 09:59:45;;;;;;;;;;;11.10;99.90;;;;;;5033786;28;19920;-65
2022/12/29 10:02:23;;;;;;;;;;;11.20;99.90;;;;;;5039546;28;20386;-66
2022/12/29 10:04:48;;;;;;;;;;;11.30;99.90;;;;;;5047863;28;19914;-66
2022/12/29 10:07:14;;;;;;;;;;;11.30;99.90;;;;;;5051263;28;19928;-65
2022/12/29 10:09:45;;;;;;;;;;;11.30;99.90;;;;;;5052088;28;20340;-63
2022/12/29 10:12:20;;;;;;;;;;;11.30;99.90;;;;;;5051846;28;19951;-64
2022/12/29 10:15:02;;;;;;;;;;;11.30;99.90;;;;;;5051570;28;19936;-64
2022/12/29 10:17:27;;;;;;;;;;;11.30;99.90;;;;;;5050462;28;19982;-65
2022/12/29 10:19:53;;;;;;;;;;;11.30;99.90;;;;;;5051708;28;20267;-64
2022/12/29 10:22:35;;;;;;;;;;;11.40;99.90;;;;;;5052184;28;19967;-66
2022/12/29 10:25:03;;;;;;;;;;;11.40;99.90;;;;;;5047144;28;19955;-65
2022/12/29 10:27:31;;;;;;;;;;;11.40;99.90;;;;;;5050491;28;19924;-65
2022/12/29 10:29:57;;;;;;;;;;;11.40;99.90;;;;;;5043331;28;20002;-66
2022/12/29 10:32:49;;;;;;;;;;;11.40;99.90;;;;;;5052064;28;19999;-65
2022/12/29 10:35:22;;;;;;;;;;;11.40;99.90;;;;;;5045437;28;19987;-64
2022/12/29 10:38:07;;;;;;;;;;;11.40;99.90;;;;;;5051412;28;19909;-64
2022/12/29 10:40:42;;;;;;;;;;;11.50;99.90;;;;;;5047487;28;19913;-64
2022/12/29 10:43:16;;;;;;;;;;;11.50;99.90;;;;;;5046870;28;20451;-65
2022/12/29 10:45:42;;;;;;;;;;;11.60;99.90;;;;;;5047248;28;19913;-65
2022/12/29 10:48:12;;;;;;;;;;;11.60;99.90;;;;;;5046047;28;19972;-66
2022/12/29 10:50:42;;;;;;;;;;;11.60;99.90;;;;;;5047768;28;19912;-64
2022/12/29 10:53:17;;;;;;;;;;;11.60;99.90;;;;;;5051589;28;19952;-65
2022/12/29 10:55:43;;;;;;;;;;;11.60;99.90;;;;;;5049775;28;19960;-64
2022/12/29 10:58:11;;;;;;;;;;;11.70;99.90;;;;;;5052375;28;19916;-65
2022/12/29 11:00:37;;;;;;;;;;;11.70;99.90;;;;;;5049729;28;19920;-64
2022/12/29 11:03:09;;;;;;;;;;;11.80;99.90;;;;;;5045126;28;19913;-63
2022/12/29 11:05:37;;;;;;;;;;;11.80;99.90;;;;;;5050529;28;19948;-64
2022/12/29 11:08:08;;;;;;;;;;;11.90;99.90;;;;;;5042855;28;19917;-63
2022/12/29 11:10:33;;;;;;;;;;;11.80;99.90;;;;;;5051349;28;19963;-64
2022/12/29 11:12:59;;;;;;;;;;;11.80;99.90;;;;;;5050812;28;19964;-64
2022/12/29 11:15:24;;;;;;;;;;;11.80;99.90;;;;;;5049380;28;19913;-63
2022/12/29 11:17:52;;;;;;;;;;;11.80;99.90;;;;;;5046820;28;19996;-65
2022/12/29 11:20:37;;;;;;;;;;;11.80;99.90;;;;;;5047642;28;19913;-63
2022/12/29 11:23:04;;;;;;;;;;;11.80;99.90;;;;;;5044475;28;19920;-64
2022/12/29 11:25:29;;;;;;;;;;;11.80;99.90;;;;;;5048009;28;20316;-64
2022/12/29 11:27:56;;;;;;;;;;;11.80;99.90;;;;;;5046099;28;20012;-63
2022/12/29 11:30:23;;;;;;;;;;;11.80;99.90;;;;;;5046528;28;19928;-63
2022/12/29 11:32:52;;;;;;;;;;;11.70;99.90;;;;;;5046774;28;19909;-64
2022/12/29 11:35:33;;;;;;;;;;;11.70;99.90;;;;;;5046966;28;20444;-65
2022/12/29 11:37:59;;;;;;;;;;;11.70;99.90;;;;;;5041809;28;20401;-64
2022/12/29 11:40:25;;;;;;;;;;;11.70;99.90;;;;;;5044673;28;19920;-64
2022/12/29 11:42:53;;;;;;;;;;;11.70;99.90;;;;;;5048645;28;20282;-65
2022/12/29 11:45:20;;;;;;;;;;;11.70;99.90;;;;;;5041966;28;19913;-65
2022/12/29 11:47:47;;;;;;;;;;;11.70;99.90;;;;;;5042317;28;20115;-65
2022/12/29 11:50:21;;;;;;;;;;;11.70;99.90;;;;;;5044811;28;19924;-65
2022/12/29 11:52:47;;;;;;;;;;;11.70;99.90;;;;;;5047191;28;19917;-68
2022/12/29 11:55:21;;;;;;;;;;;11.70;99.90;;;;;;5049474;28;19916;-66
2022/12/29 11:57:47;;;;;;;;;;;11.70;99.90;;;;;;5049046;28;19923;-66
2022/12/29 12:00:18;;;;;;;;;;;11.70;99.90;;;;;;5050343;28;20362;-64
2022/12/29 12:02:45;;;;;;;;;;;11.70;99.90;;;;;;5045851;28;20374;-66
2022/12/29 12:05:14;;;;;;;;;;;11.70;99.90;;;;;;5044330;28;19917;-65
2022/12/29 12:07:41;;;;;;;;;;;11.80;99.90;;;;;;5049476;28;20381;-65
2022/12/29 12:10:12;;;;;;;;;;;11.80;99.90;;;;;;5045819;28;19917;-64
2022/12/29 12:12:43;;;;;;;;;;;11.90;99.90;;;;;;5049891;28;19912;-64
2022/12/29 12:15:13;;;;;;;;;;;11.90;99.90;;;;;;5046365;28;19921;-67
2022/12/29 12:17:57;;;;;;;;;;;11.90;99.90;;;;;;5044162;28;19913;-64
2022/12/29 12:20:31;;;;;;;;;;;12.00;99.90;;;;;;5046927;28;19928;-66
2022/12/29 12:22:57;;;;;;;;;;;12.10;99.90;;;;;;5038655;28;20007;-62
2022/12/29 12:25:37;;;;;;;;;;;12.20;99.90;;;;;;5043107;28;20459;-65
2022/12/29 12:28:15;;;;;;;;;;;12.30;99.90;;;;;;5044018;28;19917;-64
2022/12/29 12:30:44;;;;;;;;;;;12.20;99.90;;;;;;5041713;28;20390;-63
2022/12/29 12:33:13;;;;;;;;;;;12.30;99.90;;;;;;5044962;28;19913;-63
2022/12/29 12:35:38;;;;;;;;;;;12.30;99.90;;;;;;5038103;28;20041;-64
2022/12/29 12:38:22;;;;;;;;;;;12.30;99.90;;;;;;5044610;28;20270;-65
2022/12/29 12:40:58;;;;;;;;;;;12.40;99.90;;;;;;5049150;28;20278;-67
2022/12/29 12:43:44;;;;;;;;;;;12.40;99.90;;;;;;5046167;28;20007;-64
2022/12/29 12:46:10;;;;;;;;;;;12.30;99.90;;;;;;5033395;28;19913;-61
2022/12/29 12:48:35;;;;;;;;;;;12.30;99.90;;;;;;5042955;28;20394;-65
2022/12/29 12:51:04;;;;;;;;;;;12.40;99.90;;;;;;5046834;28;19957;-64
2022/12/29 12:53:32;;;;;;;;;;;12.30;99.90;;;;;;5039323;28;20365;-65
2022/12/29 12:56:16;;;;;;;;;;;12.20;99.90;;;;;;5041196;28;19920;-64
2022/12/29 12:58:44;;;;;;;;;;;12.20;99.90;;;;;;5041864;28;19912;-65
2022/12/29 13:01:28;;;;;;;;;;;12.10;99.90;;;;;;5049822;28;19954;-62
2022/12/29 13:04:03;;;;;;;;;;;12.00;99.90;;;;;;5045681;28;20294;-64
2022/12/29 13:06:51;;;;;;;;;;;12.00;99.90;;;;;;5045096;28;20347;-66
2022/12/29 13:09:37;;;;;;;;;;;12.00;99.90;;;;;;5042888;28;20398;-68
2022/12/29 13:12:21;;;;;;;;;;;12.00;99.90;;;;;;5042950;28;19920;-65
2022/12/29 13:14:52;;;;;;;;;;;11.90;99.90;;;;;;5045816;28;19913;-66
2022/12/29 13:17:25;;;;;;;;;;;11.90;99.90;;;;;;5042383;28;19992;-67
2022/12/29 13:19:50;;;;;;;;;;;11.90;99.90;;;;;;5038734;28;19919;-66
2022/12/29 13:22:18;;;;;;;;;;;11.90;99.90;;;;;;5043996;28;19965;-66
2022/12/29 13:24:47;;;;;;;;;;;11.90;99.90;;;;;;5047112;28;19920;-68
2022/12/29 13:27:16;;;;;;;;;;;12.00;99.90;;;;;;5045643;28;19927;-66
2022/12/29 13:29:41;;;;;;;;;;;11.90;99.90;;;;;;5036830;28;19971;-66
2022/12/29 13:32:16;;;;;;;;;;;12.00;99.90;;;;;;5044378;28;20001;-62
2022/12/29 13:35:00;;;;;;;;;;;12.00;99.90;;;;;;5043819;28;19913;-66
2022/12/29 13:37:27;;;;;;;;;;;12.00;99.90;;;;;;5041835;28;19918;-66
2022/12/29 13:39:59;;;;;;;;;;;12.00;99.90;;;;;;5046680;28;19913;-64
2022/12/29 13:42:26;;;;;;;;;;;12.00;99.90;;;;;;5048129;28;19937;-66
2022/12/29 13:44:57;;;;;;;;;;;12.00;99.90;;;;;;5040934;28;19990;-64
2022/12/29 13:47:26;;;;;;;;;;;11.90;99.90;;;;;;5049008;28;19936;-66
2022/12/29 13:49:52;;;;;;;;;;;11.90;99.90;;;;;;5044231;28;19912;-65
2022/12/29 13:52:24;;;;;;;;;;;12.00;99.90;;;;;;5044762;28;20347;-64
2022/12/29 13:54:59;;;;;;;;;;;12.00;99.90;;;;;;5043335;28;19920;-64
2022/12/29 13:57:40;;;;;;;;;;;11.90;99.90;;;;;;5047242;28;19995;-65
2022/12/29 14:00:06;;;;;;;;;;;11.80;99.90;;;;;;5048194;28;19942;-62
2022/12/29 14:02:32;;;;;;;;;;;11.90;99.90;;;;;;5042539;28;19912;-65
2022/12/29 14:04:58;;;;;;;;;;;11.80;99.90;;;;;;5048473;28;19909;-61
2022/12/29 14:07:24;;;;;;;;;;;11.80;99.90;;;;;;5038597;28;19924;-64
2022/12/29 14:09:51;;;;;;;;;;;11.70;99.90;;;;;;5042871;28;19938;-64
2022/12/29 14:12:32;;;;;;;;;;;11.70;99.90;;;;;;5044828;28;20401;-66
2022/12/29 14:15:10;;;;;;;;;;;11.70;99.90;;;;;;5045927;28;19967;-67
2022/12/29 14:17:36;;;;;;;;;;;11.70;99.90;;;;;;5041090;28;19913;-64
2022/12/29 14:20:03;;;;;;;;;;;11.80;99.90;;;;;;5048232;28;19920;-62
2022/12/29 14:22:29;;;;;;;;;;;11.70;99.90;;;;;;5047931;28;20355;-68
2022/12/29 14:24:55;;;;;;;;;;;11.70;99.90;;;;;;5041822;28;19975;-68
2022/12/29 14:27:20;;;;;;;;;;;11.80;99.90;;;;;;5046557;28;20008;-67
2022/12/29 14:29:47;;;;;;;;;;;11.80;99.90;;;;;;5042515;28;19917;-66
2022/12/29 14:32:24;;;;;;;;;;;11.80;99.90;;;;;;5047382;28;20328;-66
2022/12/29 14:34:54;;;;;;;;;;;11.70;99.90;;;;;;5041318;28;19924;-65
2022/12/29 14:37:22;;;;;;;;;;;11.80;99.90;;;;;;5042907;28;20336;-66
2022/12/29 14:39:48;;;;;;;;;;;11.70;99.90;;;;;;5046024;28;19916;-67
2022/12/29 14:42:17;;;;;;;;;;;11.70;99.90;;;;;;5049045;28;20323;-67
2022/12/29 14:44:46;;;;;;;;;;;11.70;99.90;;;;;;5044264;28;19913;-66
2022/12/29 14:47:17;;;;;;;;;;;11.80;99.90;;;;;;5048254;28;19913;-66
2022/12/29 14:49:44;;;;;;;;;;;11.90;99.90;;;;;;5049151;28;19926;-66
2022/12/29 14:52:14;;;;;;;;;;;11.80;99.90;;;;;;5042578;28;20055;-64
2022/12/29 14:54:53;;;;;;;;;;;11.80;99.90;;;;;;5040236;28;19912;-64
2022/12/29 14:57:29;;;;;;;;;;;11.80;99.90;;;;;;5045929;28;19913;-65
2022/12/29 15:00:07;;;;;;;;;;;11.80;99.90;;;;;;5048853;28;20006;-66